createdAt,value
2023-02-23T00:01:27.095Z,19.63
2023-02-23T00:03:56.745Z,23.07
2023-02-23T00:06:26.321Z,28.97
2023-02-23T00:08:53.446Z,23.27
2023-02-23T00:11:22.230Z,23.93
2023-02-23T00:13:50.863Z,24.23
2023-02-23T00:16:23.715Z,22.97
2023-02-23T00:18:53.913Z,23.10
2023-02-23T00:21:24.102Z,22.93
2023-02-23T00:23:54.768Z,28.00
2023-02-23T00:26:24.978Z,27.43
2023-02-23T00:28:53.898Z,28.67
2023-02-23T00:31:27.082Z,31.80
2023-02-23T00:33:56.247Z,27.87
2023-02-23T00:36:26.628Z,29.80
2023-02-23T00:38:55.111Z,28.23
2023-02-23T00:41:28.479Z,31.47
2023-02-23T00:43:57.101Z,29.37
2023-02-23T00:46:28.285Z,30.30
2023-02-23T00:48:57.924Z,28.20
2023-02-23T00:51:30.787Z,26.03
2023-02-23T00:53:59.394Z,29.10
2023-02-23T00:56:27.671Z,31.40
2023-02-23T00:58:55.566Z,28.50
2023-02-23T01:01:24.362Z,30.57
2023-02-23T01:03:55.775Z,28.83
2023-02-23T01:06:23.094Z,27.70
2023-02-23T01:08:56.936Z,29.87
2023-02-23T01:11:33.240Z,27.73
2023-02-23T01:14:01.356Z,25.53
2023-02-23T01:16:31.914Z,28.80
2023-02-23T01:19:03.414Z,26.43
2023-02-23T01:21:33.895Z,27.63
2023-02-23T01:24:02.248Z,29.93
2023-02-23T01:26:33.885Z,29.00
2023-02-23T01:29:04.162Z,27.93
2023-02-23T01:31:31.720Z,29.60
2023-02-23T01:34:03.360Z,28.93
2023-02-23T01:36:35.079Z,28.27
2023-02-23T01:39:06.131Z,26.20
2023-02-23T01:41:35.421Z,29.97
2023-02-23T01:44:06.183Z,29.67
2023-02-23T01:46:35.349Z,31.20
2023-02-23T01:49:06.279Z,30.23
2023-02-23T01:51:39.476Z,29.10
2023-02-23T01:54:15.719Z,29.47
2023-02-23T01:56:47.371Z,31.43
2023-02-23T01:59:17.849Z,31.47
2023-02-23T02:01:45.432Z,27.73
2023-02-23T02:04:19.466Z,30.40
2023-02-23T02:06:53.547Z,29.63
2023-02-23T02:09:28.006Z,32.70
2023-02-23T02:11:54.904Z,34.67
2023-02-23T02:14:27.158Z,30.10
2023-02-23T02:17:10.349Z,31.50
2023-02-23T02:20:37.921Z,30.10
2023-02-23T02:23:50.011Z,31.93
2023-02-23T02:26:33.428Z,31.07
2023-02-23T02:29:43.058Z,32.93
2023-02-23T02:33:06.278Z,29.23
2023-02-23T02:36:10.298Z,30.93
2023-02-23T02:38:53.873Z,31.23
2023-02-23T02:41:35.632Z,29.83
2023-02-23T02:44:15.105Z,31.53
2023-02-23T02:46:49.900Z,32.17
2023-02-23T02:49:29.856Z,32.27
2023-02-23T02:52:05.637Z,30.93
2023-02-23T02:54:40.458Z,29.87
2023-02-23T02:57:11.057Z,33.23
2023-02-23T03:00:05.256Z,29.93
2023-02-23T03:02:53.971Z,36.20
2023-02-23T03:05:47.474Z,32.00
2023-02-23T03:08:41.168Z,31.60
2023-02-23T03:11:31.317Z,32.27
2023-02-23T03:14:35.763Z,32.63
2023-02-23T03:17:31.913Z,31.47
2023-02-23T03:20:29.401Z,29.50
2023-02-23T03:23:24.220Z,31.43
2023-02-23T03:26:20.622Z,31.30
2023-02-23T03:29:18.310Z,30.63
2023-02-23T03:32:12.232Z,33.23
2023-02-23T03:35:05.739Z,32.37
2023-02-23T03:37:59.575Z,31.50
2023-02-23T03:40:52.045Z,26.37
2023-02-23T03:43:43.573Z,33.13
2023-02-23T03:46:33.653Z,33.27
2023-02-23T03:49:23.152Z,32.37
2023-02-23T03:52:15.367Z,30.77
2023-02-23T03:55:12.625Z,31.87
2023-02-23T03:58:01.761Z,28.00
2023-02-23T04:00:52.945Z,31.80
2023-02-23T04:03:42.264Z,32.87
2023-02-23T04:06:33.082Z,33.43
2023-02-23T04:09:24.930Z,31.33
2023-02-23T04:12:18.613Z,30.90
2023-02-23T04:14:56.063Z,33.23
2023-02-23T04:17:28.280Z,31.37
2023-02-23T04:19:57.473Z,33.00
2023-02-23T04:22:25.128Z,31.37
2023-02-23T04:24:52.513Z,31.90
2023-02-23T04:27:19.506Z,29.50
2023-02-23T04:29:46.834Z,32.17
2023-02-23T04:32:17.441Z,33.23
2023-02-23T04:34:44.917Z,33.27
2023-02-23T04:37:13.718Z,30.57
2023-02-23T04:39:42.608Z,31.93
2023-02-23T04:42:10.097Z,30.13
2023-02-23T04:44:37.040Z,31.83
2023-02-23T04:47:04.093Z,32.00
2023-02-23T04:49:31.026Z,30.77
2023-02-23T04:51:58.131Z,34.63
2023-02-23T04:54:26.928Z,34.40
2023-02-23T04:56:53.991Z,39.83
2023-02-23T04:59:20.988Z,36.80
2023-02-23T05:01:48.296Z,36.87
2023-02-23T05:04:15.228Z,34.10
2023-02-23T05:06:42.874Z,38.23
2023-02-23T05:09:10.091Z,33.20
2023-02-23T05:11:38.329Z,37.03
2023-02-23T05:14:05.418Z,37.37
2023-02-23T05:16:32.413Z,40.27
2023-02-23T05:18:59.359Z,36.27
2023-02-23T05:21:26.349Z,32.97
2023-02-23T05:23:53.273Z,34.53
2023-02-23T05:26:20.343Z,37.80
2023-02-23T05:28:48.781Z,35.93
2023-02-23T05:31:15.902Z,34.30
2023-02-23T05:33:43.084Z,33.07
2023-02-23T05:36:12.266Z,34.33
2023-02-23T05:38:40.578Z,36.03
2023-02-23T05:41:08.040Z,36.50
2023-02-23T05:43:35.312Z,35.93
2023-02-23T05:46:07.011Z,36.40
2023-02-23T05:48:34.964Z,34.53
2023-02-23T05:51:03.079Z,33.13
2023-02-23T05:53:30.229Z,33.70
2023-02-23T05:55:57.360Z,35.33
2023-02-23T05:58:25.027Z,37.37
2023-02-23T06:00:53.091Z,37.43
2023-02-23T06:03:22.487Z,35.10
2023-02-23T06:05:54.854Z,39.13
2023-02-23T06:08:23.015Z,37.37
2023-02-23T06:10:49.893Z,38.30
2023-02-23T06:13:17.953Z,40.50
2023-02-23T06:15:45.248Z,39.47
2023-02-23T06:18:12.592Z,38.70
2023-02-23T06:20:40.974Z,38.43
2023-02-23T06:23:08.080Z,36.33
2023-02-23T06:25:35.152Z,40.37
2023-02-23T06:28:02.182Z,36.23
2023-02-23T06:30:29.510Z,41.07
2023-02-23T06:32:56.413Z,38.67
2023-02-23T06:35:24.162Z,38.27
2023-02-23T06:37:52.549Z,37.20
2023-02-23T06:40:20.584Z,36.17
2023-02-23T06:42:47.659Z,36.67
2023-02-23T06:45:14.605Z,39.53
2023-02-23T06:47:41.639Z,38.00
2023-02-23T06:50:10.598Z,39.97
2023-02-23T06:52:37.952Z,42.90
2023-02-23T06:55:08.936Z,39.67
2023-02-23T06:57:35.945Z,44.50
2023-02-23T07:00:04.143Z,41.13
2023-02-23T07:02:31.696Z,44.07
2023-02-23T07:04:58.811Z,45.43
2023-02-23T07:07:25.971Z,41.67
2023-02-23T07:09:52.892Z,43.37
2023-02-23T07:12:21.169Z,44.30
2023-02-23T07:14:48.093Z,44.33
2023-02-23T07:17:15.031Z,39.30
2023-02-23T07:19:42.009Z,43.50
2023-02-23T07:22:09.075Z,42.37
2023-02-23T07:24:36.181Z,46.50
2023-02-23T07:27:03.094Z,44.63
2023-02-23T07:29:31.441Z,46.93
2023-02-23T07:31:58.403Z,51.03
2023-02-23T07:34:25.514Z,54.13
2023-02-23T07:36:52.400Z,53.87
2023-02-23T07:39:19.358Z,51.50
2023-02-23T07:41:46.305Z,54.73
2023-02-23T07:44:13.213Z,53.60
2023-02-23T07:46:41.858Z,58.13
2023-02-23T07:49:09.340Z,52.27
2023-02-23T07:51:36.188Z,56.23
2023-02-23T07:54:05.015Z,51.00
2023-02-23T07:56:32.522Z,53.47
2023-02-23T07:58:59.707Z,55.83
2023-02-23T08:01:26.681Z,57.87
2023-02-23T08:03:55.047Z,59.13
2023-02-23T08:06:22.038Z,55.97
2023-02-23T08:08:49.187Z,57.00
2023-02-23T08:11:16.177Z,57.27
2023-02-23T08:13:43.146Z,62.83
2023-02-23T08:16:12.337Z,55.97
2023-02-23T08:18:39.453Z,67.27
2023-02-23T08:21:07.886Z,57.03
2023-02-23T08:23:35.513Z,64.03
2023-02-23T08:26:03.101Z,62.33
2023-02-23T08:28:31.344Z,63.93
2023-02-23T08:30:59.375Z,61.53
2023-02-23T08:33:26.546Z,60.40
2023-02-23T08:35:53.554Z,67.30
2023-02-23T08:38:21.885Z,68.53
2023-02-23T08:40:48.755Z,73.63
2023-02-23T08:43:16.335Z,77.40
2023-02-23T08:45:43.454Z,83.17
2023-02-23T08:48:10.383Z,82.23
2023-02-23T08:50:37.303Z,74.03
2023-02-23T08:53:05.234Z,85.40
2023-02-23T08:55:35.515Z,73.47
2023-02-23T08:58:02.430Z,86.70
2023-02-23T09:00:29.359Z,79.13
2023-02-23T09:02:56.308Z,83.90
2023-02-23T09:05:23.313Z,75.97
2023-02-23T09:07:50.759Z,76.70
2023-02-23T09:10:20.327Z,80.07
2023-02-23T09:12:48.640Z,77.37
2023-02-23T09:15:15.576Z,82.13
2023-02-23T09:17:44.742Z,79.97
2023-02-23T09:20:15.664Z,82.30
2023-02-23T09:22:48.588Z,70.03
2023-02-23T09:25:18.208Z,77.93
2023-02-23T09:27:45.469Z,72.80
2023-02-23T09:30:17.642Z,107.33
2023-02-23T09:32:45.451Z,74.77
2023-02-23T09:35:12.607Z,69.33
2023-02-23T09:37:39.500Z,72.80
2023-02-23T09:40:10.333Z,72.33
2023-02-23T09:42:46.034Z,69.50
2023-02-23T09:45:27.039Z,67.77
2023-02-23T09:48:13.969Z,67.70
2023-02-23T09:50:47.575Z,63.27
2023-02-23T09:53:33.990Z,68.97
2023-02-23T09:56:05.351Z,59.00
2023-02-23T09:58:34.524Z,60.97
2023-02-23T10:01:38.447Z,63.00
2023-02-23T10:04:15.777Z,53.33
2023-02-23T10:06:51.007Z,52.03
2023-02-23T10:09:35.919Z,51.13
2023-02-23T10:12:11.381Z,52.37
2023-02-23T10:15:10.303Z,48.67
2023-02-23T10:17:53.619Z,49.57
2023-02-23T10:20:29.960Z,48.70
2023-02-23T10:23:04.804Z,47.53
2023-02-23T10:25:38.004Z,49.70
2023-02-23T10:28:05.649Z,49.80
2023-02-23T10:30:34.753Z,49.63
2023-02-23T10:33:15.235Z,48.63
2023-02-23T10:35:43.033Z,45.53
2023-02-23T10:38:16.099Z,40.57
2023-02-23T10:40:46.419Z,41.23
2023-02-23T10:43:14.309Z,42.10
2023-02-23T10:45:46.387Z,41.03
2023-02-23T10:48:22.664Z,46.53
2023-02-23T10:50:53.773Z,46.87
2023-02-23T10:53:26.477Z,48.53
2023-02-23T10:56:08.010Z,49.73
2023-02-23T10:58:43.460Z,42.23
2023-02-23T11:01:11.319Z,49.07
2023-02-23T11:03:44.867Z,52.30
2023-02-23T11:06:31.093Z,49.87
2023-02-23T11:08:58.170Z,45.53
2023-02-23T11:11:31.249Z,49.13
2023-02-23T11:13:58.620Z,48.50
2023-02-23T11:16:30.692Z,52.60
2023-02-23T11:19:01.636Z,53.30
2023-02-23T11:21:34.670Z,57.33
2023-02-23T11:24:18.071Z,59.03
2023-02-23T11:26:48.639Z,47.07
2023-02-23T11:29:24.375Z,49.80
2023-02-23T11:31:55.750Z,59.33
2023-02-23T11:34:30.525Z,53.03
2023-02-23T11:37:08.034Z,58.67
2023-02-23T11:39:35.378Z,55.97
2023-02-23T11:42:22.129Z,56.33
2023-02-23T11:45:03.134Z,56.60
2023-02-23T11:47:32.795Z,56.90
2023-02-23T11:50:04.687Z,58.83
2023-02-23T11:52:32.315Z,60.37
2023-02-23T11:55:05.386Z,59.63
2023-02-23T11:57:35.498Z,53.97
2023-02-23T12:00:11.097Z,55.77
2023-02-23T12:02:51.547Z,58.00
2023-02-23T12:05:24.526Z,58.90
2023-02-23T12:08:01.358Z,54.87
2023-02-23T12:10:36.932Z,64.95
2023-02-23T12:13:26.388Z,58.27
2023-02-23T12:16:02.660Z,56.00
2023-02-23T12:18:46.069Z,58.13
2023-02-23T12:21:29.879Z,54.30
2023-02-23T12:24:14.510Z,63.63
2023-02-23T12:26:51.054Z,67.97
2023-02-23T12:29:31.066Z,65.90
2023-02-23T12:32:02.966Z,69.73
2023-02-23T12:34:39.475Z,67.47
2023-02-23T12:37:29.114Z,72.17
2023-02-23T12:40:03.985Z,71.23
2023-02-23T12:42:42.778Z,68.77
2023-02-23T12:45:21.956Z,69.20
2023-02-23T12:47:59.427Z,75.77
2023-02-23T12:50:32.020Z,63.40
2023-02-23T12:53:18.072Z,72.20
2023-02-23T12:56:04.295Z,73.70
2023-02-23T12:58:45.594Z,79.70
2023-02-23T13:01:22.613Z,63.43
2023-02-23T13:04:12.683Z,64.17
2023-02-23T13:06:54.999Z,62.67
2023-02-23T13:09:43.816Z,63.67
2023-02-23T13:12:36.026Z,63.03
2023-02-23T13:15:23.521Z,58.67
2023-02-23T13:18:02.018Z,64.13
2023-02-23T13:20:37.262Z,61.20
2023-02-23T13:23:17.059Z,58.73
2023-02-23T13:25:58.041Z,57.83
2023-02-23T13:28:40.116Z,61.90
2023-02-23T13:31:23.355Z,48.57
2023-02-23T13:33:53.890Z,55.27
2023-02-23T13:36:23.477Z,54.47
2023-02-23T13:39:22.283Z,55.30
2023-02-23T13:42:11.173Z,50.53
2023-02-23T13:44:49.256Z,53.97
2023-02-23T13:47:34.713Z,49.93
2023-02-23T13:50:16.127Z,46.03
2023-02-23T13:52:59.142Z,48.50
2023-02-23T13:55:49.531Z,50.87
2023-02-23T13:58:26.937Z,49.23
2023-02-23T14:01:05.870Z,43.37
2023-02-23T14:03:47.032Z,48.37
2023-02-23T14:06:18.198Z,49.60
2023-02-23T14:08:53.281Z,47.37
2023-02-23T14:11:49.182Z,56.73
2023-02-23T14:14:43.526Z,47.63
2023-02-23T14:17:57.386Z,44.93
2023-02-23T14:20:53.873Z,44.53
2023-02-23T14:23:36.077Z,43.53
2023-02-23T14:26:15.175Z,45.13
2023-02-23T14:28:44.969Z,47.07
2023-02-23T14:31:25.152Z,45.40
2023-02-23T14:33:59.908Z,50.53
2023-02-23T14:36:45.045Z,45.40
2023-02-23T14:39:23.374Z,43.63
2023-02-23T14:41:54.340Z,46.23
2023-02-23T14:44:30.511Z,45.60
2023-02-23T14:47:06.361Z,42.63
2023-02-23T14:49:40.266Z,42.53
2023-02-23T14:52:13.836Z,42.33
2023-02-23T14:54:41.520Z,42.47
2023-02-23T14:57:20.138Z,38.17
2023-02-23T14:59:56.353Z,44.60
2023-02-23T15:02:28.394Z,47.03
2023-02-23T15:04:56.583Z,40.43
2023-02-23T15:07:36.158Z,42.00
2023-02-23T15:10:12.752Z,43.23
2023-02-23T15:12:42.893Z,47.63
2023-02-23T15:15:18.770Z,39.37
2023-02-23T15:17:54.946Z,41.33
2023-02-23T15:20:32.841Z,43.43
2023-02-23T15:23:05.865Z,39.83
2023-02-23T15:25:44.537Z,37.97
2023-02-23T15:28:33.089Z,37.83
2023-02-23T15:31:02.505Z,36.87
2023-02-23T15:33:31.115Z,38.83
2023-02-23T15:36:08.344Z,40.07
2023-02-23T15:38:44.304Z,37.67
2023-02-23T15:41:25.332Z,36.97
2023-02-23T15:43:52.616Z,40.50
2023-02-23T15:46:26.817Z,34.97
2023-02-23T15:49:00.784Z,32.37
2023-02-23T15:51:36.371Z,32.67
2023-02-23T15:54:13.838Z,33.53
2023-02-23T15:56:41.489Z,35.57
2023-02-23T15:59:17.028Z,34.50
2023-02-23T16:01:46.345Z,26.80
2023-02-23T16:04:21.637Z,26.10
2023-02-23T16:06:55.700Z,16.60
2023-02-23T16:09:29.451Z,24.40
2023-02-23T16:12:03.066Z,19.47
2023-02-23T16:14:42.570Z,22.77
2023-02-23T16:17:26.088Z,22.50
2023-02-23T16:20:11.013Z,29.77
2023-02-23T16:22:39.886Z,27.07
2023-02-23T16:25:13.846Z,26.70
2023-02-23T16:27:44.593Z,23.20
2023-02-23T16:30:23.977Z,25.43
2023-02-23T16:33:10.884Z,24.37
2023-02-23T16:35:46.306Z,34.20
2023-02-23T16:38:20.530Z,24.37
2023-02-23T16:40:48.702Z,28.53
2023-02-23T16:43:16.286Z,33.17
2023-02-23T16:45:44.005Z,22.67
2023-02-23T16:48:14.576Z,32.97
2023-02-23T16:50:45.365Z,27.63
2023-02-23T16:53:14.249Z,20.73
2023-02-23T16:55:54.978Z,26.03
2023-02-23T16:58:25.949Z,22.20
2023-02-23T17:00:53.666Z,27.57
2023-02-23T17:03:24.970Z,23.73
2023-02-23T17:05:54.170Z,22.57
2023-02-23T17:08:21.801Z,24.83
2023-02-23T17:10:52.348Z,28.27
2023-02-23T17:13:22.362Z,25.00
2023-02-23T17:15:55.974Z,23.43
2023-02-23T17:21:03.803Z,24.10
2023-02-23T17:23:42.411Z,26.47
2023-02-23T17:26:11.822Z,21.43
2023-02-23T17:28:39.769Z,26.27
2023-02-23T17:31:08.257Z,20.50
2023-02-23T17:33:36.990Z,23.00
2023-02-23T17:36:10.344Z,21.50
2023-02-23T17:38:38.501Z,18.40
2023-02-23T17:41:08.813Z,21.13
2023-02-23T17:43:37.511Z,16.30
2023-02-23T17:46:05.747Z,16.90
2023-02-23T17:48:35.408Z,24.33
2023-02-23T17:51:08.263Z,21.73
2023-02-23T17:53:35.863Z,16.30
2023-02-23T17:56:02.809Z,21.97
2023-02-23T17:58:30.064Z,16.03
2023-02-23T18:00:59.123Z,15.57
2023-02-23T18:03:32.258Z,16.33
2023-02-23T18:06:00.822Z,12.80
2023-02-23T18:08:29.879Z,13.83
2023-02-23T18:10:58.275Z,19.50
2023-02-23T18:13:26.855Z,21.37
2023-02-23T18:15:58.362Z,9.87
2023-02-23T18:18:25.345Z,14.20
2023-02-23T18:20:55.465Z,20.50
2023-02-23T18:23:24.423Z,12.97
2023-02-23T18:25:52.658Z,12.43
2023-02-23T18:28:19.666Z,22.67
2023-02-23T18:30:46.869Z,15.27
2023-02-23T18:33:16.706Z,15.30
2023-02-23T18:35:47.428Z,11.50
2023-02-23T18:38:15.772Z,16.60
2023-02-23T18:40:42.919Z,12.93
2023-02-23T18:43:11.450Z,11.33
2023-02-23T18:45:38.345Z,16.50
2023-02-23T18:48:13.270Z,15.33
2023-02-23T18:50:41.141Z,13.43
2023-02-23T18:53:10.773Z,14.30
2023-02-23T18:55:38.468Z,12.20
2023-02-23T18:58:05.664Z,14.23
2023-02-23T19:00:40.032Z,15.97
2023-02-23T19:03:07.341Z,14.73
2023-02-23T19:05:36.164Z,16.23
2023-02-23T19:08:03.987Z,17.17
2023-02-23T19:10:30.874Z,19.30
2023-02-23T19:12:57.769Z,11.07
2023-02-23T19:15:25.266Z,12.60
2023-02-23T19:17:54.319Z,14.83
2023-02-23T19:20:22.754Z,16.70
2023-02-23T19:22:49.818Z,17.33
2023-02-23T19:25:17.003Z,13.40
2023-02-23T19:27:44.006Z,16.20
2023-02-23T19:30:13.501Z,12.90
2023-02-23T19:32:40.776Z,13.87
2023-02-23T19:35:14.599Z,9.93
2023-02-23T19:37:47.386Z,11.20
2023-02-23T19:40:16.622Z,16.13
2023-02-23T19:42:45.795Z,14.13
2023-02-23T19:45:13.282Z,13.50
2023-02-23T19:47:40.544Z,13.90
2023-02-23T19:50:13.288Z,14.07
2023-02-23T19:52:40.255Z,11.13
2023-02-23T19:55:08.694Z,11.03
2023-02-23T19:57:35.605Z,12.07
2023-02-23T20:00:04.651Z,15.43
2023-02-23T20:02:31.601Z,12.50
2023-02-23T20:04:58.531Z,13.37
2023-02-23T20:07:26.858Z,10.87
2023-02-23T20:09:53.968Z,10.60
2023-02-23T20:12:20.903Z,10.23
2023-02-23T20:14:49.458Z,10.60
2023-02-23T20:17:16.358Z,13.27
2023-02-23T20:19:43.278Z,12.97
2023-02-23T20:22:10.254Z,11.27
2023-02-23T20:24:38.453Z,9.03
2023-02-23T20:27:05.312Z,9.33
2023-02-23T20:29:34.034Z,10.77
2023-02-23T20:32:02.648Z,12.60
2023-02-23T20:34:29.935Z,10.87
2023-02-23T20:36:56.880Z,12.47
2023-02-23T20:39:24.706Z,14.10
2023-02-23T20:41:53.662Z,14.50
2023-02-23T20:44:23.200Z,16.37
2023-02-23T20:46:50.877Z,12.10
2023-02-23T20:49:18.960Z,12.97
2023-02-23T20:51:48.407Z,19.97
2023-02-23T20:54:16.779Z,15.33
2023-02-23T20:56:44.946Z,10.33
2023-02-23T20:59:13.700Z,16.27
2023-02-23T21:01:42.509Z,12.40
2023-02-23T21:04:09.693Z,13.03
2023-02-23T21:06:36.900Z,13.50
2023-02-23T21:09:12.419Z,9.87
2023-02-23T21:11:39.386Z,10.60
2023-02-23T21:14:08.274Z,15.17
2023-02-23T21:16:40.745Z,7.77
2023-02-23T21:19:07.823Z,9.10
2023-02-23T21:21:39.296Z,17.07
2023-02-23T21:24:06.760Z,13.47
2023-02-23T21:26:33.870Z,14.17
2023-02-23T21:29:02.701Z,11.93
2023-02-23T21:31:30.497Z,15.20
2023-02-23T21:33:58.797Z,17.07
2023-02-23T21:36:25.722Z,10.70
2023-02-23T21:38:52.650Z,12.33
2023-02-23T21:41:19.971Z,11.30
2023-02-23T21:43:48.462Z,10.47
2023-02-23T21:46:16.692Z,9.17
2023-02-23T21:48:44.456Z,10.60
2023-02-23T21:51:16.553Z,12.83
2023-02-23T21:53:45.708Z,11.73
2023-02-23T21:56:15.481Z,9.90
2023-02-23T21:58:47.564Z,9.47
2023-02-23T22:01:18.970Z,12.30
2023-02-23T22:03:48.040Z,12.37
2023-02-23T22:06:20.889Z,10.83
2023-02-23T22:08:52.361Z,7.97
2023-02-23T22:11:24.699Z,14.40
2023-02-23T22:13:58.664Z,10.17
2023-02-23T22:16:28.613Z,11.17
2023-02-23T22:18:55.526Z,10.27
2023-02-23T22:21:24.470Z,9.83
2023-02-23T22:23:53.262Z,8.97
2023-02-23T22:26:20.140Z,8.80
2023-02-23T22:28:47.045Z,16.57
2023-02-23T22:31:14.572Z,11.50
2023-02-23T22:33:43.913Z,8.43
2023-02-23T22:36:14.627Z,10.77
2023-02-23T22:38:42.898Z,7.23
2023-02-23T22:41:10.964Z,10.03
2023-02-23T22:43:38.666Z,10.00
2023-02-23T22:46:07.785Z,7.77
2023-02-23T22:48:35.749Z,17.07
2023-02-23T22:51:04.026Z,7.27
2023-02-23T22:53:31.276Z,6.83
2023-02-23T22:55:59.585Z,9.10
2023-02-23T22:58:26.851Z,8.87
2023-02-23T23:01:04.712Z,7.30
2023-02-23T23:03:35.637Z,13.90
2023-02-23T23:06:04.621Z,10.20
2023-02-23T23:08:38.536Z,9.47
2023-02-23T23:11:10.343Z,7.37
2023-02-23T23:13:43.157Z,6.50
2023-02-23T23:16:16.785Z,6.20
2023-02-23T23:18:55.933Z,6.73
2023-02-23T23:21:26.227Z,6.97
2023-02-23T23:23:56.944Z,5.73
2023-02-23T23:26:27.875Z,6.67
2023-02-23T23:28:57.809Z,6.80
2023-02-23T23:31:30.586Z,8.10
2023-02-23T23:34:00.346Z,6.23
2023-02-23T23:36:33.313Z,8.60
2023-02-23T23:39:01.678Z,10.03
2023-02-23T23:41:35.652Z,6.80
2023-02-23T23:44:05.134Z,7.07
2023-02-23T23:46:35.438Z,7.17
2023-02-23T23:49:05.972Z,5.33
2023-02-23T23:51:38.747Z,8.63
2023-02-23T23:54:08.568Z,8.07
2023-02-23T23:56:37.375Z,5.53
2023-02-23T23:59:07.561Z,7.93
